Time;durP1;ratioP1;P1;durP2;ratioP2;P2;SDS_P1;SDS_P2;PMS_P1;PMS_P2;Temp;Humidity;BMP_temperature;BMP_pressure;BME280_temperature;BME280_humidity;BME280_pressure;Samples;Min_cycle;Max_cycle;Signal;HPM_P1;HPM_P2
2021/09/02 00:01:56;;;;;;;7.72;3.90;;;13.70;99.90;;;;;;5019223;28;20036;-89
2021/09/02 00:04:22;;;;;;;7.32;3.85;;;13.60;99.90;;;;;;5019189;28;20021;-88
2021/09/02 00:06:48;;;;;;;6.35;3.72;;;13.60;99.90;;;;;;5019356;28;20029;-88
2021/09/02 00:09:14;;;;;;;7.18;4.05;;;13.50;99.90;;;;;;5037064;28;20500;-88
2021/09/02 00:11:40;;;;;;;9.05;3.92;;;13.60;99.90;;;;;;5019845;28;20029;-88
2021/09/02 00:14:05;;;;;;;7.72;3.95;;;13.60;99.90;;;;;;5037722;28;20422;-88
2021/09/02 00:16:31;;;;;;;7.30;3.95;;;13.50;99.90;;;;;;5033628;28;20101;-88
2021/09/02 00:18:57;;;;;;;5.28;3.88;;;13.40;99.90;;;;;;5034494;28;20037;-88
2021/09/02 00:21:22;;;;;;;7.93;3.95;;;13.30;99.90;;;;;;5022006;28;20497;-88
2021/09/02 00:23:48;;;;;;;6.38;4.32;;;13.30;99.90;;;;;;5019964;28;20025;-88
2021/09/02 00:26:14;;;;;;;5.45;3.47;;;13.20;99.90;;;;;;5042568;28;20041;-88
2021/09/02 00:28:40;;;;;;;7.00;3.70;;;13.40;99.90;;;;;;5056783;28;20135;-88
2021/09/02 00:31:06;;;;;;;6.68;3.85;;;13.30;99.90;;;;;;5055898;28;20032;-88
2021/09/02 00:33:31;;;;;;;9.35;3.45;;;13.20;99.90;;;;;;5055715;28;20032;-89
2021/09/02 00:35:57;;;;;;;5.50;3.83;;;13.30;99.90;;;;;;5055325;28;20032;-88
2021/09/02 00:38:23;;;;;;;5.72;3.45;;;13.40;99.90;;;;;;5055455;28;20025;-88
2021/09/02 00:40:49;;;;;;;9.45;3.70;;;13.20;99.90;;;;;;5055457;28;20060;-88
2021/09/02 00:43:14;;;;;;;4.88;3.33;;;13.30;99.90;;;;;;5055350;28;20031;-88
2021/09/02 00:45:40;;;;;;;4.30;3.53;;;13.30;99.90;;;;;;5055678;28;20110;-88
2021/09/02 00:48:06;;;;;;;6.38;3.67;;;13.20;99.90;;;;;;5055070;28;20025;-88
2021/09/02 00:50:32;;;;;;;7.93;3.65;;;13.40;99.90;;;;;;5055437;28;20082;-89
2021/09/02 00:53:00;;;;;;;10.07;4.05;;;13.50;99.90;;;;;;5055322;28;20029;-88
2021/09/02 00:55:25;;;;;;;5.75;3.65;;;13.30;99.90;;;;;;5055026;28;20024;-88
2021/09/02 00:57:52;;;;;;;7.95;3.55;;;13.40;99.90;;;;;;5054948;28;20488;-88
2021/09/02 01:00:18;;;;;;;8.57;3.58;;;13.50;99.90;;;;;;5055583;28;20032;-88
2021/09/02 01:02:46;;;;;;;5.30;3.25;;;13.20;99.90;;;;;;5054991;28;20049;-88
2021/09/02 01:05:19;;;;;;;8.30;3.80;;;13.30;99.90;;;;;;5054993;28;20092;-88
2021/09/02 01:07:46;;;;;;;7.05;4.00;;;13.40;99.90;;;;;;5054708;28;20017;-88
2021/09/02 01:10:13;;;;;;;6.35;3.72;;;13.30;99.90;;;;;;5054905;28;20108;-88
2021/09/02 01:12:47;;;;;;;5.88;3.67;;;13.30;99.90;;;;;;5054445;28;20024;-88
2021/09/02 01:15:19;;;;;;;6.72;3.72;;;13.10;99.90;;;;;;5054442;28;20029;-88
2021/09/02 01:17:47;;;;;;;5.45;3.38;;;13.10;99.90;;;;;;5054861;28;20032;-88
2021/09/02 01:20:15;;;;;;;7.18;3.60;;;13.10;99.90;;;;;;5055343;28;20092;-88
2021/09/02 01:22:42;;;;;;;9.07;3.88;;;13.30;99.90;;;;;;5055316;28;20065;-88
2021/09/02 01:25:11;;;;;;;7.68;3.03;;;13.30;99.90;;;;;;5054322;28;20489;-88
2021/09/02 01:27:37;;;;;;;4.43;3.10;;;13.20;99.90;;;;;;5053693;28;20045;-87
2021/09/02 01:30:07;;;;;;;6.03;3.47;;;13.10;99.90;;;;;;5053500;28;20502;-88
2021/09/02 01:32:35;;;;;;;5.68;3.40;;;13.10;99.90;;;;;;5053313;28;20060;-88
2021/09/02 01:35:01;;;;;;;5.88;3.72;;;13.00;99.90;;;;;;5054669;28;20078;-88
2021/09/02 01:37:37;;;;;;;4.63;3.60;;;13.30;99.90;;;;;;5053333;28;20035;-88
2021/09/02 01:40:03;;;;;;;9.38;3.67;;;13.00;99.90;;;;;;5053587;28;20362;-88
2021/09/02 01:42:29;;;;;;;7.43;3.30;;;13.00;99.90;;;;;;5054610;28;20025;-88
2021/09/02 01:44:55;;;;;;;4.10;3.30;;;13.00;99.90;;;;;;5053314;28;20036;-88
2021/09/02 01:47:23;;;;;;;5.43;3.67;;;13.00;99.90;;;;;;5052952;28;20025;-87
2021/09/02 01:49:49;;;;;;;5.25;3.50;;;13.00;99.90;;;;;;5053143;28;20039;-88
2021/09/02 01:52:14;;;;;;;8.43;3.63;;;13.00;99.90;;;;;;5054032;28;20029;-88
2021/09/02 01:54:40;;;;;;;6.65;3.47;;;12.80;99.90;;;;;;5053020;28;20032;-88
2021/09/02 01:57:07;;;;;;;6.07;4.20;;;12.80;99.90;;;;;;5052769;28;20094;-88
2021/09/02 01:59:33;;;;;;;5.30;3.13;;;12.50;99.90;;;;;;5052600;28;20024;-88
2021/09/02 02:01:58;;;;;;;5.45;3.53;;;12.70;99.90;;;;;;5052602;28;20358;-88
2021/09/02 02:04:24;;;;;;;4.68;3.47;;;13.00;99.90;;;;;;5052653;28;20067;-88
2021/09/02 02:06:50;;;;;;;6.53;3.42;;;13.10;99.90;;;;;;5052625;28;20112;-88
2021/09/02 02:09:15;;;;;;;7.63;3.30;;;13.10;99.90;;;;;;5052801;28;20017;-88
2021/09/02 02:11:41;;;;;;;4.82;3.15;;;13.20;99.90;;;;;;5052280;28;20075;-88
2021/09/02 02:14:07;;;;;;;9.18;3.50;;;13.20;99.90;;;;;;5052406;28;20036;-88
2021/09/02 02:16:32;;;;;;;4.93;3.30;;;13.00;99.90;;;;;;5052387;28;20389;-88
2021/09/02 02:18:58;;;;;;;7.75;3.67;;;13.00;99.90;;;;;;5051628;28;20033;-89
2021/09/02 02:21:24;;;;;;;7.05;3.50;;;12.80;99.90;;;;;;5052243;28;20054;-88
2021/09/02 02:23:50;;;;;;;6.05;3.70;;;12.50;99.90;;;;;;5052220;28;20025;-88
2021/09/02 02:26:15;;;;;;;5.53;2.97;;;12.40;99.90;;;;;;5012641;28;1149654;-88
2021/09/02 02:28:41;;;;;;;7.80;3.42;;;12.10;99.90;;;;;;5054805;28;20516;-88
2021/09/02 02:31:07;;;;;;;7.72;3.08;;;12.20;99.90;;;;;;5058022;28;20093;-88
2021/09/02 02:33:32;;;;;;;5.97;3.47;;;12.30;99.90;;;;;;5073632;28;20020;-89
2021/09/02 02:35:58;;;;;;;5.68;3.60;;;12.40;99.90;;;;;;5067286;28;20071;-88
2021/09/02 02:38:24;;;;;;;4.57;2.97;;;12.60;99.90;;;;;;5055058;28;20025;-88
2021/09/02 02:40:49;;;;;;;9.18;3.30;;;12.50;99.90;;;;;;5054245;28;20147;-88
2021/09/02 02:43:15;;;;;;;6.65;3.50;;;12.30;99.90;;;;;;5053285;28;20117;-88
2021/09/02 02:45:41;;;;;;;7.65;3.65;;;12.10;99.90;;;;;;5053085;28;20025;-88
2021/09/02 02:48:07;;;;;;;10.55;3.28;;;12.40;99.90;;;;;;5052900;28;20025;-87
2021/09/02 02:50:33;;;;;;;6.25;3.30;;;12.70;99.90;;;;;;5054334;28;20021;-88
2021/09/02 02:52:59;;;;;;;4.55;3.42;;;12.80;99.90;;;;;;5053060;28;20076;-88
2021/09/02 02:55:25;;;;;;;5.85;3.40;;;12.90;99.90;;;;;;5053012;28;20021;-88
2021/09/02 02:57:51;;;;;;;5.53;3.38;;;12.70;99.90;;;;;;5052848;28;20155;-88
2021/09/02 03:00:18;;;;;;;4.18;2.97;;;12.70;99.90;;;;;;5052983;28;20385;-88
2021/09/02 03:02:43;;;;;;;4.80;3.10;;;12.60;99.90;;;;;;5052760;28;20158;-88
2021/09/02 03:05:09;;;;;;;4.13;3.40;;;12.70;99.90;;;;;;5052435;28;20059;-88
2021/09/02 03:07:35;;;;;;;8.43;3.25;;;12.70;99.90;;;;;;5054163;28;20392;-88
2021/09/02 03:10:06;;;;;;;7.32;2.88;;;12.60;99.90;;;;;;5052917;28;20433;-88
2021/09/02 03:12:32;;;;;;;5.38;3.35;;;12.50;99.90;;;;;;5053241;28;20389;-88
2021/09/02 03:14:58;;;;;;;4.00;3.00;;;12.50;99.90;;;;;;5052722;28;20025;-88
2021/09/02 03:17:24;;;;;;;4.53;3.20;;;12.20;99.90;;;;;;5052719;28;20032;-88
2021/09/02 03:19:49;;;;;;;4.47;3.45;;;12.10;99.90;;;;;;5053007;28;20021;-88
2021/09/02 03:22:15;;;;;;;4.95;3.50;;;12.20;99.90;;;;;;5052801;28;20032;-88
2021/09/02 03:24:41;;;;;;;5.53;3.47;;;12.30;99.90;;;;;;5052434;28;20052;-88
2021/09/02 03:27:06;;;;;;;4.53;3.28;;;12.20;99.90;;;;;;5034155;28;20046;-88
2021/09/02 03:29:32;;;;;;;7.43;4.10;;;12.00;99.90;;;;;;5016394;28;20025;-88
2021/09/02 03:31:58;;;;;;;7.57;3.58;;;12.00;99.90;;;;;;5015767;28;20440;-88
2021/09/02 03:34:24;;;;;;;7.38;3.47;;;12.20;99.90;;;;;;5016566;28;20022;-88
2021/09/02 03:36:51;;;;;;;7.25;3.58;;;12.20;99.90;;;;;;5016256;28;20056;-88
2021/09/02 03:39:17;;;;;;;7.80;3.55;;;12.20;99.90;;;;;;5016064;28;20029;-88
2021/09/02 03:41:43;;;;;;;5.43;3.58;;;12.30;99.90;;;;;;5016000;28;20362;-88
2021/09/02 03:44:10;;;;;;;6.43;3.25;;;12.20;99.90;;;;;;5033851;28;20029;-88
2021/09/02 03:46:35;;;;;;;4.88;3.03;;;12.50;99.90;;;;;;5016041;28;20028;-89
2021/09/02 03:49:02;;;;;;;6.97;3.33;;;12.60;99.90;;;;;;5033950;28;20030;-89
2021/09/02 03:51:27;;;;;;;5.85;3.38;;;12.40;99.90;;;;;;5015951;28;20029;-89
2021/09/02 03:53:53;;;;;;;8.23;3.25;;;12.10;99.90;;;;;;5016208;28;20033;-88
2021/09/02 03:56:19;;;;;;;5.85;3.40;;;12.40;99.90;;;;;;5016628;28;20112;-88
2021/09/02 03:58:45;;;;;;;6.00;3.42;;;12.20;99.90;;;;;;5016142;28;20482;-88
2021/09/02 04:01:10;;;;;;;4.47;3.30;;;12.40;99.90;;;;;;5016028;28;20132;-89
2021/09/02 04:03:36;;;;;;;4.18;3.08;;;12.20;99.90;;;;;;5015783;28;20029;-88
2021/09/02 04:06:02;;;;;;;4.55;3.25;;;12.40;99.90;;;;;;5015788;28;20493;-88
2021/09/02 04:08:28;;;;;;;4.78;3.33;;;12.30;99.90;;;;;;5015665;28;20061;-88
2021/09/02 04:10:53;;;;;;;7.38;3.50;;;12.40;99.90;;;;;;5015994;28;20034;-88
2021/09/02 04:13:19;;;;;;;4.35;3.67;;;12.30;99.90;;;;;;5033466;28;20064;-88
2021/09/02 04:15:45;;;;;;;7.45;3.72;;;11.80;99.90;;;;;;5015442;28;20493;-89
2021/09/02 04:18:11;;;;;;;9.90;3.35;;;11.90;99.90;;;;;;5015928;28;20060;-89
2021/09/02 04:20:37;;;;;;;4.97;3.28;;;11.70;99.90;;;;;;5015683;28;20076;-88
2021/09/02 04:23:03;;;;;;;5.45;3.22;;;11.60;99.90;;;;;;5015648;28;20021;-88
2021/09/02 04:25:29;;;;;;;9.30;3.53;;;11.70;99.90;;;;;;5025910;28;20091;-88
2021/09/02 04:27:54;;;;;;;5.85;3.60;;;11.90;99.90;;;;;;5052007;28;20024;-88
2021/09/02 04:30:20;;;;;;;9.07;3.65;;;11.90;99.90;;;;;;5051794;28;20070;-88
2021/09/02 04:32:46;;;;;;;4.30;3.35;;;11.90;99.90;;;;;;5051819;28;20025;-88
2021/09/02 04:35:12;;;;;;;4.25;3.03;;;11.90;99.90;;;;;;5051734;28;20025;-87
2021/09/02 04:37:40;;;;;;;7.53;3.15;;;11.90;99.90;;;;;;5051635;28;20477;-88
2021/09/02 04:40:07;;;;;;;6.95;3.40;;;11.90;99.90;;;;;;5051750;28;20029;-88
2021/09/02 04:42:33;;;;;;;5.57;3.03;;;12.10;99.90;;;;;;5053979;28;20056;-88
2021/09/02 04:45:00;;;;;;;6.25;3.45;;;12.40;99.90;;;;;;5055771;28;20492;-88
2021/09/02 04:47:26;;;;;;;5.68;3.67;;;12.40;99.90;;;;;;5061101;28;20021;-87
2021/09/02 04:49:53;;;;;;;6.13;3.28;;;12.50;99.90;;;;;;5076449;28;20046;-87
2021/09/02 04:52:19;;;;;;;5.30;3.47;;;12.60;99.90;;;;;;5069836;28;20086;-88
2021/09/02 04:54:44;;;;;;;6.18;3.10;;;12.10;99.90;;;;;;5070350;28;20085;-88
2021/09/02 04:57:10;;;;;;;3.42;2.58;;;11.80;99.90;;;;;;5076002;28;20021;-88
2021/09/02 04:59:36;;;;;;;4.97;3.08;;;12.00;99.90;;;;;;5063236;28;20397;-88
2021/09/02 05:02:02;;;;;;;6.50;3.30;;;12.00;99.90;;;;;;5056832;28;20032;-88
2021/09/02 05:04:28;;;;;;;6.47;3.08;;;12.20;99.90;;;;;;5055745;28;20524;-88
2021/09/02 05:06:53;;;;;;;7.75;3.40;;;12.30;99.90;;;;;;5055076;28;20052;-88
2021/09/02 05:09:19;;;;;;;5.85;3.08;;;12.10;99.90;;;;;;5056397;28;20381;-88
2021/09/02 05:11:45;;;;;;;7.72;3.38;;;11.70;99.90;;;;;;5055565;28;20048;-88
2021/09/02 05:14:10;;;;;;;8.60;4.22;;;11.60;99.90;;;;;;5054929;28;20052;-88
2021/09/02 05:16:36;;;;;;;5.45;3.10;;;12.00;99.90;;;;;;5054894;28;20477;-88
2021/09/02 05:19:02;;;;;;;6.22;3.38;;;12.20;99.90;;;;;;5054643;28;20033;-88
2021/09/02 05:21:28;;;;;;;4.78;3.60;;;12.50;99.90;;;;;;5055593;28;20025;-87
2021/09/02 05:23:54;;;;;;;7.57;3.67;;;12.30;99.90;;;;;;5054237;28;20021;-88
2021/09/02 05:26:19;;;;;;;6.97;3.47;;;12.10;99.90;;;;;;5042215;28;20062;-88
2021/09/02 05:28:45;;;;;;;5.20;3.13;;;11.90;99.90;;;;;;5035719;28;20024;-88
2021/09/02 05:31:11;;;;;;;6.00;3.42;;;12.00;99.90;;;;;;5017657;28;20029;-88
2021/09/02 05:33:37;;;;;;;5.70;3.75;;;12.20;99.90;;;;;;5017790;28;20508;-88
2021/09/02 05:36:03;;;;;;;5.57;3.67;;;12.00;99.90;;;;;;5017614;28;20030;-88
2021/09/02 05:38:29;;;;;;;4.90;3.40;;;12.10;99.90;;;;;;5035661;28;20026;-88
2021/09/02 05:40:55;;;;;;;5.00;3.55;;;12.30;99.90;;;;;;5017605;28;20029;-88
2021/09/02 05:43:21;;;;;;;6.53;3.70;;;12.50;99.90;;;;;;5017682;28;20371;-88
2021/09/02 05:45:47;;;;;;;5.90;4.00;;;12.60;99.90;;;;;;5017608;28;20473;-88
2021/09/02 05:48:13;;;;;;;7.97;3.97;;;12.40;99.90;;;;;;5035262;28;20100;-88
2021/09/02 05:50:39;;;;;;;5.22;3.30;;;12.40;99.90;;;;;;5017365;28;20109;-88
2021/09/02 05:53:05;;;;;;;5.30;3.80;;;12.50;99.90;;;;;;5016677;28;20080;-88
2021/09/02 05:55:31;;;;;;;10.07;4.05;;;12.50;99.90;;;;;;5017326;28;20037;-88
2021/09/02 05:57:57;;;;;;;7.88;3.70;;;12.50;99.90;;;;;;5017205;28;20025;-88
2021/09/02 06:00:22;;;;;;;11.43;4.07;;;12.40;99.90;;;;;;5035142;28;20014;-88
2021/09/02 06:02:48;;;;;;;5.97;3.50;;;12.30;99.90;;;;;;5017411;28;20523;-88
2021/09/02 06:05:14;;;;;;;8.18;4.13;;;12.30;99.90;;;;;;5017181;28;20405;-88
2021/09/02 06:07:39;;;;;;;8.65;3.92;;;12.60;99.90;;;;;;5017427;28;20116;-88
2021/09/02 06:10:06;;;;;;;8.70;4.20;;;12.50;99.90;;;;;;5017232;28;20435;-87
2021/09/02 06:12:32;;;;;;;6.45;3.53;;;12.60;99.90;;;;;;5017304;28;20496;-88
2021/09/02 06:14:58;;;;;;;8.25;3.88;;;12.90;99.90;;;;;;5017067;28;20021;-88
2021/09/02 06:17:23;;;;;;;5.22;3.35;;;13.00;99.90;;;;;;5017381;28;20030;-88
2021/09/02 06:19:49;;;;;;;6.30;3.75;;;13.00;99.90;;;;;;5017420;28;20547;-88
2021/09/02 06:22:15;;;;;;;12.27;3.72;;;12.90;99.90;;;;;;5016689;28;20029;-88
2021/09/02 06:24:41;;;;;;;8.00;3.95;;;13.00;99.90;;;;;;5034356;28;20033;-88
2021/09/02 06:27:06;;;;;;;12.02;3.75;;;12.90;99.90;;;;;;5017255;28;20029;-89
2021/09/02 06:29:32;;;;;;;6.53;3.70;;;13.10;99.90;;;;;;5016657;28;20496;-88
2021/09/02 06:31:58;;;;;;;6.15;3.63;;;13.30;99.90;;;;;;5016625;28;20477;-88
2021/09/02 06:34:23;;;;;;;6.72;3.63;;;13.40;99.90;;;;;;5016510;28;20438;-88
2021/09/02 06:36:49;;;;;;;5.57;4.30;;;13.40;99.90;;;;;;5016484;28;20026;-88
2021/09/02 06:39:15;;;;;;;6.20;4.00;;;13.50;99.90;;;;;;5016487;28;20500;-88
2021/09/02 06:41:41;;;;;;;6.40;4.43;;;13.50;99.90;;;;;;5016242;28;20033;-88
2021/09/02 06:44:06;;;;;;;7.18;4.38;;;13.50;99.90;;;;;;5016381;28;20037;-89
2021/09/02 06:46:32;;;;;;;8.02;4.65;;;13.70;99.90;;;;;;5016328;28;20026;-89
2021/09/02 06:48:58;;;;;;;8.73;4.45;;;13.70;99.90;;;;;;5016188;28;20524;-88
2021/09/02 06:51:24;;;;;;;7.22;4.38;;;13.70;99.90;;;;;;5016319;28;20448;-88
2021/09/02 06:53:49;;;;;;;7.40;4.10;;;13.70;99.90;;;;;;5016281;28;20028;-88
2021/09/02 06:56:15;;;;;;;7.30;4.18;;;13.90;99.90;;;;;;5016434;28;20032;-88
2021/09/02 06:58:41;;;;;;;10.35;4.95;;;13.90;99.90;;;;;;5016142;28;20499;-88
2021/09/02 07:01:07;;;;;;;7.97;4.00;;;13.90;99.90;;;;;;5016045;28;20025;-88
2021/09/02 07:03:32;;;;;;;7.18;3.90;;;14.00;99.90;;;;;;5016232;28;20022;-88
2021/09/02 07:05:58;;;;;;;6.68;4.47;;;14.00;99.90;;;;;;5016269;28;20017;-88
2021/09/02 07:08:24;;;;;;;8.95;4.45;;;14.20;99.90;;;;;;5022117;28;20100;-89
2021/09/02 07:10:50;;;;;;;7.60;5.18;;;14.30;99.90;;;;;;5037668;28;20021;-89
2021/09/02 07:13:15;;;;;;;9.05;4.78;;;14.40;99.90;;;;;;5027886;28;20535;-89
2021/09/02 07:15:41;;;;;;;6.85;4.40;;;14.50;99.90;;;;;;5017407;28;20030;-89
2021/09/02 07:18:07;;;;;;;7.65;4.88;;;14.60;99.90;;;;;;5016778;28;20040;-89
2021/09/02 07:20:33;;;;;;;7.38;5.10;;;14.80;99.90;;;;;;5016523;28;20028;-89
2021/09/02 07:22:59;;;;;;;11.60;5.22;;;14.90;99.90;;;;;;5016122;28;20537;-88
2021/09/02 07:25:25;;;;;;;9.25;5.93;;;14.90;99.90;;;;;;5025008;28;20496;-89
2021/09/02 07:27:50;;;;;;;11.75;5.63;;;15.00;99.90;;;;;;5052244;28;20017;-89
2021/09/02 07:30:16;;;;;;;9.82;5.57;;;15.10;99.90;;;;;;5052456;28;20548;-89
2021/09/02 07:32:42;;;;;;;9.30;6.03;;;15.30;99.90;;;;;;5052194;28;20120;-89
2021/09/02 07:35:08;;;;;;;8.40;5.82;;;15.30;99.90;;;;;;5052054;28;20481;-89
2021/09/02 07:37:34;;;;;;;6.93;4.95;;;15.50;99.90;;;;;;5051880;28;20028;-89
2021/09/02 07:39:59;;;;;;;8.85;5.22;;;15.70;99.90;;;;;;5051888;28;20033;-89
2021/09/02 07:42:25;;;;;;;9.27;5.47;;;15.80;99.90;;;;;;5051864;28;20029;-89
2021/09/02 07:44:51;;;;;;;8.02;5.63;;;15.90;99.90;;;;;;5052579;28;20455;-89
2021/09/02 07:47:17;;;;;;;8.95;5.53;;;16.00;99.90;;;;;;5052380;28;20021;-89
2021/09/02 07:49:43;;;;;;;10.68;6.00;;;16.00;99.90;;;;;;5051904;28;20021;-89
2021/09/02 07:52:09;;;;;;;10.65;5.88;;;16.10;99.90;;;;;;5035293;28;20029;-89
2021/09/02 07:54:35;;;;;;;9.90;5.72;;;16.10;99.90;;;;;;5053415;28;20068;-89
2021/09/02 07:57:02;;;;;;;9.00;5.40;;;16.20;99.90;;;;;;5053234;28;20131;-89
2021/09/02 07:59:28;;;;;;;9.85;5.60;;;16.40;99.90;;;;;;5052167;28;20473;-89
2021/09/02 08:01:53;;;;;;;7.40;4.47;;;16.60;99.90;;;;;;5051817;28;20032;-89
2021/09/02 08:04:20;;;;;;;8.05;5.00;;;16.70;99.90;;;;;;5051812;28;20056;-89
2021/09/02 08:06:46;;;;;;;8.27;5.10;;;16.70;99.90;;;;;;5051802;28;20075;-90
2021/09/02 08:09:12;;;;;;;12.60;5.88;;;16.80;99.90;;;;;;5051713;28;20025;-89
2021/09/02 08:11:38;;;;;;;9.15;5.72;;;17.00;99.90;;;;;;5051748;28;20032;-89
2021/09/02 08:14:04;;;;;;;12.50;5.60;;;17.20;99.90;;;;;;5053177;28;20029;-90
2021/09/02 08:16:30;;;;;;;7.15;5.63;;;17.40;99.90;;;;;;5052432;28;20511;-89
2021/09/02 08:18:58;;;;;;;10.35;5.88;;;17.30;99.90;;;;;;5055410;28;20059;-89
2021/09/02 08:21:23;;;;;;;10.07;5.47;;;17.50;99.90;;;;;;5055369;28;20025;-89
2021/09/02 08:23:50;;;;;;;8.75;5.53;;;17.60;99.90;;;;;;5055520;28;20538;-89
2021/09/02 08:26:16;;;;;;;9.50;5.47;;;17.60;99.90;;;;;;5055126;28;20064;-89
2021/09/02 08:28:41;;;;;;;8.70;5.50;;;17.60;99.90;;;;;;5055419;28;20489;-89
2021/09/02 08:31:07;;;;;;;9.15;5.43;;;17.80;99.90;;;;;;5055357;28;20025;-89
2021/09/02 08:33:33;;;;;;;9.85;4.80;;;18.00;99.90;;;;;;5055262;28;20116;-88
2021/09/02 08:35:59;;;;;;;8.73;6.03;;;18.10;99.90;;;;;;5056573;28;20104;-89
2021/09/02 08:38:25;;;;;;;14.10;6.22;;;18.20;99.90;;;;;;5055166;28;20032;-89
2021/09/02 08:40:51;;;;;;;12.20;6.25;;;18.20;99.90;;;;;;5055454;28;20025;-90
2021/09/02 08:43:17;;;;;;;9.18;5.63;;;18.30;99.90;;;;;;5054862;28;20025;-89
2021/09/02 08:45:43;;;;;;;10.38;5.53;;;18.50;99.90;;;;;;5055017;28;20075;-89
2021/09/02 08:48:09;;;;;;;8.18;5.50;;;18.60;99.90;;;;;;5054784;28;20021;-89
2021/09/02 08:50:37;;;;;;;9.00;5.68;;;18.60;99.90;;;;;;5054787;28;20028;-90
2021/09/02 08:53:05;;;;;;;14.63;6.22;;;18.60;99.90;;;;;;5054982;28;20035;-89
2021/09/02 08:55:31;;;;;;;9.32;5.80;;;18.60;99.90;;;;;;5054909;28;20037;-87
2021/09/02 08:57:57;;;;;;;8.32;5.00;;;18.70;99.90;;;;;;5054758;28;20029;-89
2021/09/02 09:00:25;;;;;;;7.75;5.25;;;19.10;99.90;;;;;;5054845;28;20440;-90
2021/09/02 09:03:04;;;;;;;10.02;6.15;;;19.30;99.90;;;;;;5054820;28;20378;-88
2021/09/02 09:05:35;;;;;;;7.32;5.22;;;19.40;99.90;;;;;;5054827;28;20431;-90
2021/09/02 09:08:07;;;;;;;7.20;4.78;;;19.30;99.90;;;;;;5054399;28;20017;-87
2021/09/02 09:10:32;;;;;;;11.77;5.20;;;19.50;99.90;;;;;;5054880;28;20032;-90
2021/09/02 09:13:01;;;;;;;6.05;5.05;;;19.80;99.90;;;;;;5055228;28;20115;-89
2021/09/02 09:15:35;;;;;;;8.35;4.65;;;19.90;99.90;;;;;;5065194;28;20029;-90
2021/09/02 09:18:18;;;;;;;10.93;5.35;;;20.10;99.90;;;;;;5070771;28;20052;-90
2021/09/02 09:20:45;;;;;;;8.13;5.15;;;20.20;99.90;;;;;;5056633;28;20047;-89
2021/09/02 09:23:11;;;;;;;11.07;4.72;;;20.20;99.90;;;;;;5055326;28;20028;-91
2021/09/02 09:25:37;;;;;;;7.03;4.50;;;20.20;99.90;;;;;;5054331;28;20112;-89
2021/09/02 09:28:03;;;;;;;5.40;3.97;;;20.10;99.90;;;;;;5054444;28;20021;-89
2021/09/02 09:30:34;;;;;;;6.05;4.50;;;20.30;99.90;;;;;;5054363;28;20028;-89
2021/09/02 09:33:03;;;;;;;9.43;5.13;;;20.50;99.90;;;;;;5054713;28;20029;-89
2021/09/02 09:35:30;;;;;;;5.15;4.22;;;20.60;99.90;;;;;;5055675;28;20040;-89
2021/09/02 09:38:06;;;;;;;5.30;4.15;;;20.60;99.90;;;;;;5054358;28;20025;-90
2021/09/02 09:40:33;;;;;;;7.72;4.50;;;20.80;99.90;;;;;;5054994;28;20025;-89
2021/09/02 09:43:03;;;;;;;7.20;4.53;;;21.00;99.90;;;;;;5054012;28;20021;-89
2021/09/02 09:45:48;;;;;;;9.82;4.70;;;21.10;99.90;;;;;;5054102;28;20025;-88
2021/09/02 09:48:17;;;;;;;7.82;4.45;;;21.10;99.90;;;;;;5054048;28;20108;-90
2021/09/02 09:50:44;;;;;;;7.10;4.47;;;21.20;99.90;;;;;;5053914;28;20102;-90
2021/09/02 09:53:27;;;;;;;10.02;4.30;;;21.30;99.90;;;;;;5055053;28;20027;-90
2021/09/02 09:55:54;;;;;;;8.98;4.50;;;21.50;99.90;;;;;;5053690;28;20017;-89
2021/09/02 09:58:24;;;;;;;7.68;4.38;;;21.50;99.90;;;;;;5053968;28;20385;-90
2021/09/02 10:01:01;;;;;;;11.00;3.88;;;21.60;99.90;;;;;;5053914;28;20477;-86
2021/09/02 10:03:29;;;;;;;6.40;4.00;;;21.60;99.90;;;;;;5054870;28;20025;-89
2021/09/02 10:05:59;;;;;;;8.10;4.22;;;21.90;99.90;;;;;;5053468;28;20067;-89
2021/09/02 10:08:27;;;;;;;6.75;4.53;;;22.10;99.90;;;;;;5053683;28;20071;-89
2021/09/02 10:10:53;;;;;;;6.20;4.07;;;22.10;99.90;;;;;;5053463;28;20054;-87
2021/09/02 10:13:19;;;;;;;7.85;3.75;;;22.10;99.90;;;;;;5053483;28;20025;-91
2021/09/02 10:15:46;;;;;;;7.55;4.03;;;22.50;99.90;;;;;;5053876;28;20017;-89
2021/09/02 10:18:13;;;;;;;5.65;4.00;;;22.50;99.90;;;;;;5054469;28;20028;-89
2021/09/02 10:20:41;;;;;;;6.55;4.35;;;22.40;99.90;;;;;;5053025;28;20094;-87
2021/09/02 10:23:07;;;;;;;12.25;4.10;;;22.30;99.90;;;;;;5052953;28;20025;-88
2021/09/02 10:25:33;;;;;;;7.03;4.07;;;22.50;99.90;;;;;;5052968;28;20056;-87
2021/09/02 10:28:21;;;;;;;9.35;4.18;;;22.90;99.90;;;;;;5053100;28;20025;-89
2021/09/02 10:30:53;;;;;;;5.47;3.97;;;23.20;99.90;;;;;;5053378;28;20021;-89
2021/09/02 10:33:37;;;;;;;5.80;4.35;;;23.30;99.90;;;;;;5054630;28;20017;-89
2021/09/02 10:36:15;;;;;;;5.72;4.05;;;23.40;99.90;;;;;;5052991;28;20025;-89
2021/09/02 10:38:56;;;;;;;8.18;4.00;;;23.60;99.90;;;;;;5052742;28;20378;-88
2021/09/02 10:41:37;;;;;;;7.30;3.60;;;23.80;99.90;;;;;;5052468;28;20024;-87
2021/09/02 10:44:05;;;;;;;7.57;4.60;;;23.90;99.90;;;;;;5052885;28;20025;-87
2021/09/02 10:46:34;;;;;;;6.00;3.92;;;23.90;99.90;;;;;;5052806;28;20024;-88
2021/09/02 10:49:10;;;;;;;6.65;4.57;;;24.20;99.90;;;;;;5052857;28;20056;-89
2021/09/02 10:51:39;;;;;;;5.07;4.00;;;23.90;99.90;;;;;;5052771;28;20033;-88
2021/09/02 10:54:06;;;;;;;6.40;4.60;;;24.20;99.90;;;;;;5052879;28;20029;-88
2021/09/02 10:56:51;;;;;;;6.78;4.07;;;24.40;99.90;;;;;;5054036;28;20056;-87
2021/09/02 10:59:43;;;;;;;7.30;4.65;;;24.60;99.90;;;;;;5052696;28;20493;-89
2021/09/02 11:02:10;;;;;;;6.10;4.10;;;24.50;99.90;;;;;;5052843;28;20048;-89
2021/09/02 11:04:38;;;;;;;7.25;4.10;;;24.70;99.90;;;;;;5052992;28;20116;-88
2021/09/02 11:07:04;;;;;;;7.55;4.38;;;24.90;99.90;;;;;;5052826;28;20116;-88
2021/09/02 11:09:32;;;;;;;5.55;3.60;;;25.10;99.90;;;;;;5052802;28;20021;-88
2021/09/02 11:11:59;;;;;;;6.13;4.07;;;25.40;99.90;;;;;;5053685;28;20053;-89
2021/09/02 11:14:26;;;;;;;5.47;3.92;;;25.50;99.90;;;;;;5055531;28;20021;-88
2021/09/02 11:16:52;;;;;;;5.72;3.90;;;25.40;99.90;;;;;;5071425;28;20029;-90
2021/09/02 11:19:33;;;;;;;6.32;3.75;;;25.60;99.90;;;;;;5065862;28;20028;-91
2021/09/02 11:22:25;;;;;;;6.72;4.47;;;25.30;99.90;;;;;;5054258;28;20580;-88
2021/09/02 11:24:53;;;;;;;5.63;4.18;;;25.30;99.90;;;;;;5051430;28;20025;-91
2021/09/02 11:27:48;;;;;;;8.65;3.90;;;25.40;99.90;;;;;;5016356;28;20498;-88
2021/09/02 11:30:20;;;;;;;;;;;25.80;99.90;;;;;;4999851;28;20497;-89
2021/09/02 11:33:03;;;;;;;6.45;4.15;;;25.70;99.90;;;;;;5016040;28;19927;-90
2021/09/02 11:35:29;;;;;;;5.65;3.92;;;25.90;99.90;;;;;;5016116;28;20060;-89
2021/09/02 11:37:55;;;;;;;5.97;4.07;;;26.30;99.90;;;;;;5016619;28;20034;-91
2021/09/02 11:40:29;;;;;;;6.60;3.95;;;26.30;99.90;;;;;;5016406;28;20030;-91
2021/09/02 11:42:56;;;;;;;6.57;4.18;;;26.70;99.90;;;;;;5016189;28;20600;-91
2021/09/02 11:45:25;;;;;;;6.63;3.85;;;26.40;99.90;;;;;;5015911;28;20029;-91
2021/09/02 11:47:52;;;;;;;6.53;4.20;;;26.50;99.70;;;;;;5016199;28;20021;-88
2021/09/02 11:50:19;;;;;;;6.10;4.10;;;26.50;99.90;;;;;;5016197;28;20151;-90
2021/09/02 11:52:47;;;;;;;6.47;4.45;;;26.80;99.40;;;;;;5018219;28;20025;-91
2021/09/02 11:55:34;;;;;;;7.50;4.10;;;27.10;98.30;;;;;;5020032;28;20026;-92
2021/09/02 11:58:00;;;;;;;5.60;3.67;;;27.00;98.70;;;;;;5020076;28;20075;-91
2021/09/02 12:00:26;;;;;;;6.47;3.70;;;26.90;97.50;;;;;;5019952;28;20029;-92
2021/09/02 12:02:58;;;;;;;8.40;3.85;;;27.20;96.90;;;;;;5019852;28;20038;-91
2021/09/02 12:05:36;;;;;;;7.85;3.28;;;27.40;96.60;;;;;;5020091;28;20029;-92
2021/09/02 12:08:02;;;;;;;5.57;3.30;;;28.00;96.50;;;;;;5020207;28;20393;-89
2021/09/02 12:10:28;;;;;;;4.65;3.40;;;28.20;95.80;;;;;;5019612;28;20029;-91
2021/09/02 12:12:54;;;;;;;6.32;3.22;;;28.10;94.70;;;;;;5020095;28;20025;-91
2021/09/02 12:15:24;;;;;;;4.53;2.78;;;28.10;94.70;;;;;;5020074;28;20501;-91
2021/09/02 12:18:03;;;;;;;5.32;3.13;;;28.50;94.00;;;;;;5019410;28;20032;-90
2021/09/02 12:20:28;;;;;;;3.95;3.35;;;28.40;93.00;;;;;;5019817;28;20073;-91
2021/09/02 12:22:54;;;;;;;5.03;3.33;;;28.50;93.20;;;;;;5019335;28;20551;-90
2021/09/02 12:25:22;;;;;;;4.18;3.53;;;28.70;93.30;;;;;;5026773;28;20037;-90
2021/09/02 12:27:53;;;;;;;5.43;3.42;;;28.80;92.00;;;;;;5055825;28;20029;-90
2021/09/02 12:30:44;;;;;;;4.10;3.08;;;29.00;91.30;;;;;;5055851;28;20405;-90
2021/09/02 12:33:17;;;;;;;5.80;3.15;;;29.10;90.30;;;;;;5055673;28;20028;-91
2021/09/02 12:35:45;;;;;;;6.87;3.10;;;29.50;89.70;;;;;;5055800;28;20028;-90
2021/09/02 12:38:37;;;;;;;4.35;3.45;;;29.60;90.30;;;;;;5055681;28;20029;-92
2021/09/02 12:41:19;;;;;;;4.35;3.25;;;29.70;89.00;;;;;;5055646;28;20431;-91
2021/09/02 12:44:10;;;;;;;4.43;3.45;;;29.60;90.20;;;;;;5055471;28;20017;-91
2021/09/02 12:46:55;;;;;;;5.07;3.45;;;29.80;88.20;;;;;;5055601;28;20067;-90
2021/09/02 12:49:23;;;;;;;6.95;3.25;;;29.80;87.80;;;;;;5055623;28;20104;-91